Aviation Digital Data Service (ADDS)

Output produced by METARs form (0040 UTC 17 July 2019)
found at http://www.aviationweather.gov/metar/data/
 
TAF DNAA 162140Z 1700/1806 VRB02KT 9999 FEW008 
     BECMG 1708/1710 23010KT BKN009 
     PROB30 
     TEMPO 1714/1720 TS FEW020CB
       
DNAK 162300Z 00000KT 9999 SCT008 24/23 Q1016
TAF DNAK 162145Z 1700/1806 VRB02KT 9999 FEW007 
     TEMPO 1705/1708 5000 BR 
     BECMG 1708/1710 22010KT BKN013 FEW020CB
       
TAF DNBE 162145Z 1700/1806 VRB02KT 9999 FEW007 
     TEMPO 1705/1708 3000 BR 
     PROB30 1500 
     BECMG 1708/1710 21010KT BKN011 FEW020CB
       
DNEN 162000Z 00000KT 9999 FEW010 27/24 Q1013
DNIB 162100Z 27006KT 9999 FEW009 24/23 Q1014
TAF DNIB 162145Z 1700/1806 VRB02KT 9999 FEW008 
     TEMPO 1705/1708 5000 BR 
     BECMG 1708/1710 19010KT BKN012 FEW020CB
       
TAF DNIL 162140Z 1700/1806 17004KT 9999 FEW011 
     PROB30 
     TEMPO 1741/1708 5000 BR SCT007 
     BECMG 1708/1710 23010KT BKN009 
     PROB30 
     TEMPO 1715/1721 TS FEW017CB
       
TAF DNJO 162140Z 1700/1806 VRB02KT 9999 FEW006 
     PROB30 
     TEMPO 1703/1708 4000 BR SCT004 
     BECMG 1708/1710 25010KT BKN007 
     TEMPO 1713/1719 TS FEW017CB
       
TAF DNKA 162140Z 1700/1806 24005KT 9999 FEW009 
     BECMG 1709/1711 BKN012 
     TEMPO 1715/1721 TS FEW020CB
       
DNMM 170000Z VRB02KT 9999 FEW007 23/23 Q1016 NOSIG
TAF DNMM 162145Z 1700/1806 VRB02KT 8000 FEW007 
     TEMPO 1705/1708 3000 BR 
     BECMG 1708/1710 20010KT BKN011 FEW020CB
       
DNMN 170000Z 00000KT CAVOK 25/23 Q1011 NOSIG
TAF DNMN 162140Z 1700/1806 22008KT 9999 FEW010 
     BECMG 1709/1711 BKN011 
     PROB30 
     TEMPO 1717/1722 TS FEW018CB
       
DNPO 162200Z 20003KT 8000 SCT009 26/24 Q1014 NOSIG